Time;durP1;ratioP1;P1;durP2;ratioP2;P2;SDS_P1;SDS_P2;PMS_P1;PMS_P2;Temp;Humidity;BMP_temperature;BMP_pressure;BME280_temperature;BME280_humidity;BME280_pressure;Samples;Min_cycle;Max_cycle;Signal;HPM_P1;HPM_P2
2022/01/02 10:10:37;;;;;;;6.37;4.90;;;;;;;8.22;100.00;99112.09;6189140;22;4706007;-85
2022/01/02 10:13:07;;;;;;;8.23;5.40;;;;;;;8.36;100.00;99075.34;6366975;22;39039;-86
2022/01/02 10:15:35;;;;;;;9.60;5.67;;;;;;;8.60;100.00;99133.97;6366025;22;40414;-84
2022/01/02 10:18:06;;;;;;;7.00;4.93;;;;;;;8.37;100.00;99078.84;6367421;22;41798;-85
2022/01/02 10:20:37;;;;;;;6.10;4.40;;;;;;;8.66;100.00;99101.97;6365367;22;41432;-84
2022/01/02 10:23:17;;;;;;;8.40;5.10;;;;;;;8.85;99.22;99101.91;6360558;22;39025;-84
2022/01/02 10:25:49;;;;;;;5.63;3.77;;;;;;;8.97;98.04;99080.13;6357962;22;40646;-85
2022/01/02 10:28:31;;;;;;;6.20;4.10;;;;;;;9.35;96.92;99117.75;6357995;22;41822;-87
2022/01/02 10:31:10;;;;;;;5.97;4.43;;;;;;;9.42;95.73;99103.25;6361245;22;41554;-86
2022/01/02 10:33:52;;;;;;;6.97;3.80;;;;;;;9.52;94.77;99114.22;6356024;22;39971;-89
2022/01/02 10:36:28;;;;;;;6.43;4.07;;;;;;;9.39;94.25;99065.56;6357696;22;41007;-89
2022/01/02 10:39:05;;;;;;;7.23;4.03;;;;;;;9.85;93.94;99096.47;6358687;22;43827;-88
2022/01/02 10:41:37;;;;;;;5.33;4.13;;;;;;;10.02;93.76;99088.44;6356272;22;42862;-88
2022/01/02 10:44:34;;;;;;;5.57;3.57;;;;;;;10.22;93.21;99078.56;6358519;22;38729;-86
2022/01/02 10:47:15;;;;;;;6.17;3.50;;;;;;;10.54;92.51;99079.31;6360559;22;42985;-87
2022/01/02 10:49:55;;;;;;;7.33;3.93;;;;;;;10.75;91.81;99067.47;6360015;22;41558;-86
2022/01/02 10:52:29;;;;;;;4.73;3.43;;;;;;;10.84;91.06;99056.31;6335139;22;41090;-88
2022/01/02 10:54:59;;;;;;;4.93;3.20;;;;;;;10.90;90.38;99053.28;6360346;22;39094;-89
2022/01/02 10:57:28;;;;;;;5.83;4.20;;;;;;;10.91;89.84;99064.72;6360215;22;42738;-88
2022/01/02 10:59:58;;;;;;;5.93;3.93;;;;;;;10.89;89.76;99054.22;6359489;22;41496;-90
2022/01/02 11:02:31;;;;;;;6.53;3.47;;;;;;;10.84;90.37;99050.16;6383842;22;41016;-85
2022/01/02 11:05:05;;;;;;;7.43;4.03;;;;;;;10.76;90.57;99050.59;6359140;22;39271;-88
2022/01/02 11:07:42;;;;;;;4.07;3.10;;;;;;;10.62;90.35;99029.41;6358618;22;41091;-85
2022/01/02 11:10:12;;;;;;;5.70;3.80;;;;;;;10.55;90.67;99052.75;6328689;22;43138;-85
2022/01/02 11:12:42;;;;;;;5.33;3.20;;;;;;;10.41;90.49;99026.22;6346612;22;41601;-86
2022/01/02 11:15:13;;;;;;;4.20;3.43;;;;;;;10.37;90.10;99022.94;6375291;22;39872;-86
2022/01/02 11:17:43;;;;;;;4.00;2.83;;;;;;;10.38;90.57;99023.78;6320847;22;41026;-89
2022/01/02 11:20:15;;;;;;;6.03;3.20;;;;;;;10.43;90.95;99019.91;6374564;22;42631;-86
2022/01/02 11:22:52;;;;;;;6.00;3.37;;;;;;;10.46;90.76;99023.31;6320809;22;41347;-89
2022/01/02 11:25:30;;;;;;;4.67;3.20;;;;;;;10.46;90.72;99012.72;6318115;22;40110;-86
2022/01/02 11:28:03;;;;;;;4.13;3.73;;;;;;;10.35;90.60;98987.75;6320565;22;41918;-89
2022/01/02 11:30:42;;;;;;;4.40;3.20;;;;;;;10.35;90.47;98979.81;6346622;22;43827;-85
2022/01/02 11:33:13;;;;;;;3.90;3.03;;;;;;;10.39;90.55;98981.31;6321948;22;42149;-90
2022/01/02 11:35:43;;;;;;;5.50;3.90;;;;;;;10.42;90.46;98965.25;6321071;22;39233;-91
2022/01/02 11:38:12;;;;;;;5.53;3.63;;;;;;;10.22;90.22;98920.59;6321477;22;42287;-89
2022/01/02 11:40:45;;;;;;;5.07;4.00;;;;;;;10.43;90.17;98952.88;6318467;22;41918;-89
2022/01/02 11:43:48;;;;;;;5.20;4.10;;;;;;;10.50;90.27;98929.53;6320494;22;42424;-87
2022/01/02 11:46:19;;;;;;;5.60;4.03;;;;;;;10.31;90.10;98895.38;6320135;22;39212;-87
2022/01/02 11:49:13;;;;;;;5.20;3.90;;;;;;;10.40;89.93;98919.47;6319343;22;40921;-89
2022/01/02 11:51:59;;;;;;;6.90;5.23;;;;;;;10.29;90.41;98899.91;6341024;22;43448;-88
2022/01/02 11:54:52;;;;;;;5.97;4.57;;;;;;;10.33;90.09;98918.16;6318958;22;42251;-87
2022/01/02 11:57:53;;;;;;;5.10;4.30;;;;;;;10.27;90.34;98909.72;6288790;22;41016;-86
2022/01/02 12:00:43;;;;;;;5.53;3.93;;;;;;;10.23;90.34;98922.31;6318661;22;40636;-90
2022/01/02 12:03:51;;;;;;;7.63;4.27;;;;;;;10.19;89.95;98931.38;6312912;22;41900;-88
2022/01/02 12:06:22;;;;;;;6.90;4.53;;;;;;;10.19;90.22;98919.94;6320462;22;43131;-87
2022/01/02 12:08:56;;;;;;;5.70;3.63;;;;;;;10.14;90.25;98912.22;6331276;22;39921;-86
2022/01/02 12:11:41;;;;;;;6.60;3.10;;;;;;;10.14;89.87;98906.94;6353158;22;41037;-86
2022/01/02 12:14:13;;;;;;;3.43;2.93;;;;;;;10.07;89.76;98889.72;6375458;22;43783;-88
2022/01/02 12:16:43;;;;;;;4.73;2.97;;;;;;;10.08;88.88;98886.16;6352355;22;41173;-88
2022/01/02 12:19:12;;;;;;;5.27;2.97;;;;;;;10.09;89.01;98882.56;6352223;22;39049;-88
2022/01/02 12:22:10;;;;;;;3.63;2.67;;;;;;;10.27;88.94;98881.47;6378119;22;41139;-90
2022/01/02 12:24:38;;;;;;;3.43;3.07;;;;;;;10.25;87.74;98862.19;6352153;22;41652;-84
2022/01/02 12:27:13;;;;;;;3.70;2.63;;;;;;;10.33;86.52;98875.81;6352095;22;41071;-85
2022/01/02 12:29:42;;;;;;;3.10;2.23;;;;;;;10.43;85.86;98884.88;6351400;22;39227;-86
2022/01/02 12:32:11;;;;;;;2.67;2.40;;;;;;;10.47;84.82;98882.06;6352421;22;41620;-88
2022/01/02 12:34:42;;;;;;;2.67;2.30;;;;;;;10.39;84.31;98874.56;6351685;22;41692;-88
2022/01/02 12:37:09;;;;;;;2.97;2.57;;;;;;;10.53;84.42;98877.22;6353058;22;41323;-88
2022/01/02 12:39:40;;;;;;;2.87;2.37;;;;;;;10.57;83.84;98889.34;6352520;22;39045;-84
2022/01/02 12:42:14;;;;;;;2.07;1.87;;;;;;;10.51;83.24;98888.88;6406637;22;41826;-87
2022/01/02 12:44:42;;;;;;;6.27;2.30;;;;;;;10.63;83.27;98904.00;6352213;22;41862;-88
2022/01/02 12:47:12;;;;;;;2.10;2.00;;;;;;;10.70;83.86;98878.81;6379118;22;41050;-85
2022/01/02 12:49:43;;;;;;;2.47;2.20;;;;;;;10.66;82.95;98867.56;6351732;22;39021;-86
2022/01/02 12:52:12;;;;;;;2.10;1.90;;;;;;;10.76;83.41;98859.88;6352406;22;40911;-87
2022/01/02 12:54:42;;;;;;;2.73;2.33;;;;;;;10.90;83.16;98872.25;6352049;22;41718;-92
2022/01/02 12:57:11;;;;;;;2.67;2.03;;;;;;;10.81;80.77;98852.50;6378944;22;41549;-86
2022/01/02 12:59:40;;;;;;;3.20;2.00;;;;;;;10.85;80.92;98840.78;6352132;22;38743;-87
2022/01/02 13:02:10;;;;;;;2.20;2.00;;;;;;;10.94;78.88;98845.47;6378849;22;41014;-88
2022/01/02 13:04:39;;;;;;;1.77;1.53;;;;;;;11.03;79.34;98839.59;6352071;22;41960;-90
2022/01/02 13:07:12;;;;;;;2.63;2.00;;;;;;;11.19;79.34;98825.34;6352621;22;42365;-90
2022/01/02 13:09:43;;;;;;;2.43;1.70;;;;;;;11.23;78.22;98816.25;6358117;22;38729;-88
2022/01/02 13:12:12;;;;;;;1.97;1.70;;;;;;;11.44;77.15;98833.38;6321375;22;40908;-85
2022/01/02 13:14:42;;;;;;;2.67;1.97;;;;;;;11.40;75.46;98819.47;6294838;22;41810;-87
2022/01/02 13:17:14;;;;;;;1.93;1.50;;;;;;;11.51;74.16;98814.28;6346920;22;40679;-91
2022/01/02 13:19:51;;;;;;;1.93;1.53;;;;;;;11.70;73.75;98818.38;6320677;22;40110;-89
2022/01/02 13:22:22;;;;;;;1.83;1.37;;;;;;;11.91;70.48;98821.41;6321486;22;40951;-84
2022/01/02 13:24:53;;;;;;;2.40;1.40;;;;;;;12.07;69.08;98825.56;6346506;22;43089;-89
2022/01/02 13:27:21;;;;;;;2.30;1.40;;;;;;;12.38;65.07;98842.84;6375422;22;42271;-87
2022/01/02 13:29:57;;;;;;;1.70;1.43;;;;;;;12.48;62.68;98849.25;6374777;22;40089;-89
2022/01/02 13:32:26;;;;;;;2.33;1.33;;;;;;;12.54;62.54;98859.41;6346981;22;40708;-91
2022/01/02 13:35:02;;;;;;;1.73;1.60;;;;;;;12.59;61.58;98857.28;6320538;22;41782;-83
2022/01/02 13:37:36;;;;;;;1.50;1.20;;;;;;;12.72;61.33;98840.47;6375054;22;42470;-86
2022/01/02 13:40:07;;;;;;;1.50;1.40;;;;;;;12.97;59.21;98872.31;6320961;22;39128;-82
2022/01/02 13:42:43;;;;;;;1.37;1.27;;;;;;;12.98;58.87;98855.41;6347363;22;41938;-85
2022/01/02 13:45:14;;;;;;;1.63;1.17;;;;;;;12.99;59.29;98849.09;6320817;22;41743;-87
2022/01/02 13:47:43;;;;;;;1.47;1.30;;;;;;;13.17;59.16;98858.44;6321106;22;42570;-85
2022/01/02 13:50:11;;;;;;;1.27;1.17;;;;;;;13.18;59.19;98860.16;6320704;22;39037;-89
2022/01/02 13:52:58;;;;;;;1.67;1.33;;;;;;;13.15;58.53;98862.16;6320732;22;41126;-84
2022/01/02 13:55:29;;;;;;;2.97;1.50;;;;;;;13.09;58.38;98854.63;6346927;22;41805;-88
2022/01/02 13:57:58;;;;;;;1.73;1.40;;;;;;;12.89;58.32;98856.91;6319995;22;41393;-87
2022/01/02 14:00:27;;;;;;;1.93;1.40;;;;;;;12.99;58.89;98866.84;6320390;22;39145;-88
2022/01/02 14:02:55;;;;;;;2.10;1.80;;;;;;;12.80;58.66;98832.78;6320953;22;40654;-89
2022/01/02 14:05:24;;;;;;;1.50;1.17;;;;;;;12.93;59.19;98866.34;6320548;22;43084;-84
2022/01/02 14:07:52;;;;;;;1.77;1.20;;;;;;;12.80;58.52;98843.44;6321406;22;41499;-86
2022/01/02 14:10:21;;;;;;;1.93;1.30;;;;;;;12.86;58.15;98842.97;6375279;22;39876;-85
2022/01/02 14:12:57;;;;;;;1.30;1.20;;;;;;;12.95;58.80;98845.00;6378334;22;41616;-89
2022/01/02 14:15:37;;;;;;;1.30;1.20;;;;;;;12.97;59.38;98845.72;6352200;22;41931;-87
2022/01/02 14:18:06;;;;;;;1.60;1.20;;;;;;;13.08;58.85;98845.81;6352202;22;42057;-86
2022/01/02 14:20:40;;;;;;;2.07;1.40;;;;;;;12.99;57.92;98822.50;6377906;22;38856;-92
2022/01/02 14:23:08;;;;;;;1.53;1.40;;;;;;;13.04;57.97;98831.03;6351951;22;41062;-85
2022/01/02 14:25:37;;;;;;;1.40;1.30;;;;;;;13.18;58.53;98854.81;6353080;22;41999;-86
2022/01/02 14:28:05;;;;;;;2.70;1.30;;;;;;;13.00;58.24;98844.63;6378218;22;41473;-89
2022/01/02 14:30:32;;;;;;;1.70;1.60;;;;;;;12.97;59.01;98856.38;6378449;22;38919;-92
2022/01/02 14:33:00;;;;;;;1.80;1.50;;;;;;;12.97;59.41;98877.63;6352399;22;43519;-90
2022/01/02 14:35:27;;;;;;;1.53;1.43;;;;;;;12.68;59.17;98862.91;6405273;22;42841;-90
2022/01/02 14:37:55;;;;;;;1.40;1.30;;;;;;;12.69;59.69;98876.09;6378617;22;41297;-89
2022/01/02 14:40:23;;;;;;;1.43;1.33;;;;;;;12.66;59.65;98894.91;6378306;22;39789;-87
2022/01/02 14:42:51;;;;;;;2.00;1.67;;;;;;;12.44;60.17;98857.50;6376992;22;40899;-90
2022/01/02 14:45:19;;;;;;;2.67;1.40;;;;;;;12.45;60.27;98870.69;6378719;22;41673;-85
2022/01/02 14:47:46;;;;;;;2.13;1.37;;;;;;;12.41;60.92;98869.19;6381623;22;43243;-87
2022/01/02 14:50:16;;;;;;;2.03;1.57;;;;;;;12.41;61.29;98885.13;6355528;22;38516;-91
2022/01/02 14:52:45;;;;;;;1.90;1.63;;;;;;;12.28;61.50;98865.69;6379923;22;42123;-86
2022/01/02 14:55:15;;;;;;;1.57;1.47;;;;;;;12.21;61.92;98869.75;6379119;22;42413;-86
2022/01/02 14:57:44;;;;;;;3.10;1.77;;;;;;;12.12;61.79;98865.88;6354071;22;42665;-87
2022/01/02 15:00:16;;;;;;;2.83;1.60;;;;;;;12.16;62.39;98885.13;6407770;22;40624;-91
2022/01/02 15:02:43;;;;;;;1.63;1.53;;;;;;;12.12;62.50;98880.97;6407338;22;43013;-87
2022/01/02 15:05:12;;;;;;;1.73;1.50;;;;;;;12.04;63.10;98886.81;6375893;22;42921;-91
